Time;durP1;ratioP1;P1;durP2;ratioP2;P2;SDS_P1;SDS_P2;PMS_P1;PMS_P2;Temp;Humidity;BMP_temperature;BMP_pressure;BME280_temperature;BME280_humidity;BME280_pressure;Samples;Min_cycle;Max_cycle;Signal;HPM_P1;HPM_P2
2022/03/12 00:01:29;;;;;;;19.63;12.40;;;;;;;11.42;34.59;101176.47;5237721;28;20029;-78
2022/03/12 00:04:00;;;;;;;16.97;13.07;;;;;;;11.34;34.71;101179.56;5234280;28;20381;-78
2022/03/12 00:06:32;;;;;;;15.93;11.83;;;;;;;11.40;34.81;101178.34;5239792;28;20083;-78
2022/03/12 00:09:05;;;;;;;18.07;12.43;;;;;;;11.43;34.80;101180.78;5232593;28;20037;-78
2022/03/12 00:11:45;;;;;;;17.10;12.13;;;;;;;11.38;34.83;101172.34;5236452;28;20033;-78
2022/03/12 00:14:21;;;;;;;19.00;12.03;;;;;;;11.35;34.85;101176.00;5232910;28;20392;-78
2022/03/12 00:16:53;;;;;;;17.90;12.17;;;;;;;11.43;35.03;101183.41;5235045;28;20022;-78
2022/03/12 00:19:24;;;;;;;16.87;11.83;;;;;;;11.42;34.98;101175.63;5250729;28;20029;-78
2022/03/12 00:21:55;;;;;;;17.90;12.30;;;;;;;11.48;35.45;101176.09;5245642;28;20048;-78
2022/03/12 00:24:28;;;;;;;21.00;12.57;;;;;;;11.45;35.30;101199.91;5232457;28;20017;-78
2022/03/12 00:27:00;;;;;;;18.50;10.60;;;;;;;11.46;35.21;101180.63;5233291;28;20095;-78
2022/03/12 00:29:32;;;;;;;19.17;12.43;;;;;;;11.43;35.18;101190.44;5253253;28;20024;-78
2022/03/12 00:32:06;;;;;;;17.67;11.60;;;;;;;11.48;35.38;101196.28;5238206;28;20345;-78
2022/03/12 00:34:37;;;;;;;20.52;12.30;;;;;;;11.40;35.42;101185.38;5233554;28;20380;-78
2022/03/12 00:37:09;;;;;;;19.63;12.53;;;;;;;11.44;35.15;101189.50;5232067;28;20065;-78
2022/03/12 00:39:44;;;;;;;15.90;12.43;;;;;;;11.52;35.26;101197.75;5240192;28;20032;-78
2022/03/12 00:42:15;;;;;;;16.33;12.47;;;;;;;11.47;35.63;101191.94;5251302;28;20040;-78
2022/03/12 00:44:47;;;;;;;21.47;13.50;;;;;;;11.40;36.74;101201.13;5250080;28;20482;-78
2022/03/12 00:47:18;;;;;;;22.43;12.33;;;;;;;11.59;36.56;101204.34;5250831;28;20667;-79
2022/03/12 00:49:50;;;;;;;20.73;12.20;;;;;;;11.53;37.03;101204.72;5249108;28;20102;-78
2022/03/12 00:52:21;;;;;;;18.97;12.43;;;;;;;11.57;37.04;101206.19;5233392;28;20033;-78
2022/03/12 00:54:52;;;;;;;17.20;11.50;;;;;;;11.54;37.57;101205.53;5241230;28;20044;-77
2022/03/12 00:57:24;;;;;;;17.80;12.33;;;;;;;11.41;38.27;101205.41;5233095;28;20060;-78
2022/03/12 00:59:55;;;;;;;14.43;12.23;;;;;;;11.43;38.15;101208.81;5231750;28;20037;-79
2022/03/12 01:02:26;;;;;;;17.67;13.00;;;;;;;11.37;38.12;101208.22;5244449;28;20050;-78
2022/03/12 01:04:58;;;;;;;18.37;11.63;;;;;;;11.42;38.00;101201.84;5239502;28;20029;-78
2022/03/12 01:07:29;;;;;;;18.23;13.27;;;;;;;11.43;38.17;101200.94;5235934;28;20025;-77
2022/03/12 01:10:00;;;;;;;19.27;14.13;;;;;;;11.34;38.53;101190.06;5231383;28;20511;-77
2022/03/12 01:12:31;;;;;;;18.13;12.37;;;;;;;11.45;38.13;101209.56;5245047;28;20448;-77
2022/03/12 01:15:04;;;;;;;17.93;12.93;;;;;;;11.37;38.55;101210.84;5239698;28;20439;-78
2022/03/12 01:17:35;;;;;;;16.50;12.77;;;;;;;11.47;38.33;101207.66;5234723;28;20025;-77
2022/03/12 01:20:09;;;;;;;20.93;14.03;;;;;;;11.38;39.15;101209.91;5244109;28;20094;-78
2022/03/12 01:22:41;;;;;;;21.17;12.60;;;;;;;11.43;39.38;101216.66;5236973;28;20669;-78
2022/03/12 01:25:12;;;;;;;19.67;11.63;;;;;;;11.44;40.40;101205.22;5231931;28;20033;-78
2022/03/12 01:27:44;;;;;;;17.63;12.83;;;;;;;11.53;39.91;101215.19;5229701;28;20029;-78
2022/03/12 01:30:24;;;;;;;20.27;14.10;;;;;;;11.47;40.89;101211.16;5230359;28;20033;-77
2022/03/12 01:32:56;;;;;;;21.17;12.20;;;;;;;11.35;42.35;101225.81;5231820;28;20038;-78
2022/03/12 01:35:28;;;;;;;17.20;13.37;;;;;;;11.31;43.12;101228.72;5249766;28;20032;-78
2022/03/12 01:38:01;;;;;;;19.50;13.00;;;;;;;11.36;43.08;101240.59;5231518;28;20441;-78
2022/03/12 01:40:33;;;;;;;21.10;13.40;;;;;;;11.41;43.04;101232.50;5232237;28;20500;-77
2022/03/12 01:43:05;;;;;;;19.63;14.67;;;;;;;11.26;43.49;101242.06;5231988;28;20043;-77
2022/03/12 01:45:37;;;;;;;18.17;13.10;;;;;;;11.22;43.29;101237.94;5233209;28;20099;-78
2022/03/12 01:48:08;;;;;;;16.67;12.57;;;;;;;11.18;44.99;101241.66;5247353;28;20064;-77
2022/03/12 01:50:39;;;;;;;19.93;13.23;;;;;;;11.07;44.88;101227.38;5235765;28;20029;-77
2022/03/12 01:53:11;;;;;;;21.27;12.73;;;;;;;10.99;46.42;101225.19;5249824;28;20480;-77
2022/03/12 01:55:43;;;;;;;18.43;13.27;;;;;;;10.96;47.39;101233.22;5238618;28;20400;-78
2022/03/12 01:58:14;;;;;;;17.77;13.90;;;;;;;10.84;48.42;101226.88;5230391;28;20092;-78
2022/03/12 02:00:51;;;;;;;19.60;14.03;;;;;;;11.06;47.14;101233.56;5245106;28;20029;-77
2022/03/12 02:03:28;;;;;;;26.03;12.93;;;;;;;10.92;46.21;101222.97;5250565;28;20046;-77
2022/03/12 02:05:59;;;;;;;20.03;14.27;;;;;;;10.85;46.47;101225.97;5245344;28;20140;-77
2022/03/12 02:08:31;;;;;;;19.23;12.67;;;;;;;10.83;47.90;101217.31;5241795;28;20029;-77
2022/03/12 02:11:02;;;;;;;18.67;12.97;;;;;;;10.85;46.71;101232.97;5229389;28;20111;-78
2022/03/12 02:13:38;;;;;;;17.23;13.40;;;;;;;10.85;45.76;101222.47;5236497;28;20108;-77
2022/03/12 02:16:10;;;;;;;20.00;13.23;;;;;;;10.88;46.45;101225.78;5229139;28;20067;-77
2022/03/12 02:18:46;;;;;;;16.13;12.43;;;;;;;10.97;45.14;101240.16;5232062;28;20037;-78
2022/03/12 02:21:38;;;;;;;20.87;13.40;;;;;;;11.08;45.43;101230.84;5243946;28;20480;-77
2022/03/12 02:24:16;;;;;;;23.90;12.93;;;;;;;11.06;46.01;101230.09;5238968;28;20107;-77
2022/03/12 02:26:49;;;;;;;18.83;12.80;;;;;;;11.00;46.19;101231.25;5250857;28;20445;-77
2022/03/12 02:29:22;;;;;;;17.17;13.00;;;;;;;10.99;45.88;101232.22;5243319;28;20067;-77
2022/03/12 02:31:57;;;;;;;19.40;12.57;;;;;;;10.96;47.01;101216.66;5242421;28;20028;-77
2022/03/12 02:34:36;;;;;;;18.47;12.70;;;;;;;11.06;46.47;101238.81;5233473;28;20387;-78
2022/03/12 02:37:07;;;;;;;20.47;11.97;;;;;;;11.01;46.95;101230.34;5240190;28;20753;-77
2022/03/12 02:39:39;;;;;;;18.90;12.37;;;;;;;11.07;46.96;101250.97;5230071;28;20029;-77
2022/03/12 02:42:11;;;;;;;19.80;13.13;;;;;;;11.10;45.94;101240.31;5244415;28;20040;-77
2022/03/12 02:44:44;;;;;;;19.53;13.33;;;;;;;11.08;46.55;101242.16;5245570;28;20067;-77
2022/03/12 02:47:26;;;;;;;17.87;14.00;;;;;;;11.21;45.78;101251.97;5244417;28;20021;-78
2022/03/12 02:50:02;;;;;;;18.30;12.83;;;;;;;11.05;46.46;101246.75;5247609;28;20082;-75
2022/03/12 02:52:41;;;;;;;16.03;13.20;;;;;;;11.05;46.27;101252.00;5230540;28;20112;-79
2022/03/12 02:55:19;;;;;;;16.47;12.20;;;;;;;11.10;45.98;101258.66;5242639;28;20068;-78
2022/03/12 02:57:52;;;;;;;17.20;12.53;;;;;;;11.00;45.76;101258.31;5228560;28;20416;-78
2022/03/12 03:00:23;;;;;;;17.03;12.27;;;;;;;11.03;45.59;101253.84;5236944;28;20108;-77
2022/03/12 03:02:56;;;;;;;20.23;13.00;;;;;;;10.99;46.22;101263.66;5235810;28;20210;-78
2022/03/12 03:05:41;;;;;;;22.53;12.93;;;;;;;11.01;46.70;101269.66;5231189;28;20025;-78
2022/03/12 03:08:17;;;;;;;14.48;12.00;;;;;;;11.12;46.29;101266.44;5237588;28;20231;-77
2022/03/12 03:10:51;;;;;;;17.40;13.47;;;;;;;10.94;46.79;101265.69;5232995;28;20029;-77
2022/03/12 03:13:28;;;;;;;16.73;12.80;;;;;;;10.97;46.84;101260.25;5241192;28;20033;-78
2022/03/12 03:16:02;;;;;;;18.50;12.90;;;;;;;10.95;47.15;101268.22;5238834;28;20488;-77
2022/03/12 03:18:39;;;;;;;18.33;12.55;;;;;;;10.90;46.96;101270.25;5234086;28;20022;-78
2022/03/12 03:21:13;;;;;;;16.70;12.43;;;;;;;10.87;48.32;101265.19;5248098;28;20484;-78
2022/03/12 03:23:45;;;;;;;18.40;11.30;;;;;;;10.67;48.67;101254.00;5253301;28;20025;-78
2022/03/12 03:26:49;;;;;;;16.23;11.50;;;;;;;10.98;47.94;101277.66;5234365;28;20116;-78
2022/03/12 03:29:22;;;;;;;14.47;11.03;;;;;;;10.76;50.10;101269.22;5237259;28;20096;-78
2022/03/12 03:31:53;;;;;;;13.87;11.33;;;;;;;10.65;50.30;101269.78;5235613;28;20029;-78
2022/03/12 03:34:24;;;;;;;13.27;11.40;;;;;;;10.66;50.71;101273.25;5246747;28;20563;-79
2022/03/12 03:36:56;;;;;;;15.77;11.47;;;;;;;10.74;50.40;101288.56;5233018;28;20637;-78
2022/03/12 03:39:28;;;;;;;14.43;11.00;;;;;;;10.63;51.07;101283.88;5238445;28;20029;-78
2022/03/12 03:41:59;;;;;;;14.37;10.83;;;;;;;10.67;51.04;101279.31;5239736;28;20570;-77
2022/03/12 03:44:31;;;;;;;15.17;9.70;;;;;;;10.62;51.04;101276.97;5242230;28;20029;-78
2022/03/12 03:47:03;;;;;;;14.10;11.43;;;;;;;10.43;51.73;101283.16;5237600;28;20025;-78
2022/03/12 03:49:34;;;;;;;16.00;11.13;;;;;;;10.43;51.55;101283.16;5238105;28;20104;-78
2022/03/12 03:52:07;;;;;;;16.37;11.90;;;;;;;10.31;51.47;101266.31;5233815;28;20566;-78
2022/03/12 03:54:41;;;;;;;15.63;11.67;;;;;;;10.45;51.25;101281.31;5250556;28;20025;-78
2022/03/12 03:57:14;;;;;;;15.60;10.73;;;;;;;10.31;52.55;101268.06;5237079;28;20060;-78
2022/03/12 03:59:46;;;;;;;17.70;11.02;;;;;;;10.39;52.80;101277.22;5240839;28;20039;-77
2022/03/12 04:02:17;;;;;;;13.23;10.83;;;;;;;10.29;53.97;101287.34;5246981;28;20045;-77
2022/03/12 04:04:49;;;;;;;15.93;10.33;;;;;;;10.37;54.12;101284.31;5240358;28;20674;-78
2022/03/12 04:07:21;;;;;;;12.90;10.00;;;;;;;10.21;55.69;101288.66;5251389;28;20001;-78
2022/03/12 04:09:52;;;;;;;21.83;9.50;;;;;;;10.34;56.16;101294.94;5242720;28;20025;-77
2022/03/12 04:12:24;;;;;;;10.73;8.30;;;;;;;10.26;56.92;101297.13;5232883;28;20423;-77
2022/03/12 04:14:56;;;;;;;10.97;8.60;;;;;;;10.21;57.58;101305.19;5241843;28;20033;-77
2022/03/12 04:17:28;;;;;;;11.77;8.53;;;;;;;10.22;57.78;101306.03;5243009;28;20005;-76
2022/03/12 04:20:00;;;;;;;9.63;7.87;;;;;;;10.28;57.83;101310.97;5239220;28;20030;-77
2022/03/12 04:22:31;;;;;;;11.30;9.10;;;;;;;10.25;58.08;101301.50;5232866;28;20037;-77
2022/03/12 04:25:03;;;;;;;7.87;7.07;;;;;;;10.32;58.68;101311.63;5240505;28;20388;-77
2022/03/12 04:27:34;;;;;;;12.90;8.57;;;;;;;10.30;58.69;101311.72;5237793;28;20033;-78
2022/03/12 04:30:07;;;;;;;9.90;8.20;;;;;;;10.10;59.81;101308.38;5231547;28;20083;-77
2022/03/12 04:32:39;;;;;;;10.27;7.20;;;;;;;10.08;60.71;101310.22;5250641;28;20053;-77
2022/03/12 04:35:11;;;;;;;10.23;7.30;;;;;;;10.27;59.86;101314.50;5251757;28;20039;-77
2022/03/12 04:37:42;;;;;;;9.57;7.00;;;;;;;10.08;61.36;101304.13;5237108;28;20025;-77
2022/03/12 04:40:21;;;;;;;9.07;6.67;;;;;;;10.29;60.43;101312.66;5243562;28;20087;-78
2022/03/12 04:42:53;;;;;;;9.70;6.20;;;;;;;10.23;61.06;101321.66;5252565;28;20473;-78
2022/03/12 04:45:26;;;;;;;8.80;7.07;;;;;;;10.29;60.30;101312.66;5252540;28;20125;-78
2022/03/12 04:47:58;;;;;;;8.47;7.20;;;;;;;10.14;61.27;101299.41;5246123;28;20021;-79
2022/03/12 04:50:29;;;;;;;9.97;7.30;;;;;;;10.16;62.16;101312.44;5244698;28;20035;-77
2022/03/12 04:53:01;;;;;;;7.70;6.43;;;;;;;10.19;61.68;101314.06;5247259;28;20484;-78
2022/03/12 04:55:35;;;;;;;12.50;7.43;;;;;;;10.16;62.30;101320.28;5249610;28;20113;-77
2022/03/12 04:58:09;;;;;;;9.63;7.10;;;;;;;10.12;63.08;101327.44;5243966;28;20028;-77
2022/03/12 05:00:41;;;;;;;9.35;6.97;;;;;;;10.02;63.85;101327.06;5238843;28;20024;-77
2022/03/12 05:03:17;;;;;;;7.50;6.70;;;;;;;10.05;64.03;101331.31;5246198;28;20041;-77
2022/03/12 05:05:52;;;;;;;9.57;7.43;;;;;;;9.98;64.37;101322.06;5239457;28;20037;-77
2022/03/12 05:08:24;;;;;;;;;;;;;;;10.44;60.89;101336.38;5250233;28;20371;-78
2022/03/12 05:10:57;;;;;;;9.13;7.43;;;;;;;9.93;64.42;101330.97;5235038;28;19943;-78
2022/03/12 05:13:28;;;;;;;6.93;5.73;;;;;;;9.95;64.44;101332.69;5240521;28;20096;-72
2022/03/12 05:16:03;;;;;;;8.53;6.27;;;;;;;10.04;64.02;101326.97;5242961;28;20467;-75
2022/03/12 05:18:36;;;;;;;8.60;6.80;;;;;;;10.01;63.86;101324.53;5239658;28;20158;-81
2022/03/12 05:21:08;;;;;;;8.18;7.00;;;;;;;9.90;65.45;101335.50;5250326;28;20036;-76
2022/03/12 05:23:39;;;;;;;9.33;7.33;;;;;;;9.87;64.43;101333.06;5240484;28;20025;-76
2022/03/12 05:26:10;;;;;;;7.63;6.70;;;;;;;9.76;65.69;101347.50;5244741;28;20894;-78
2022/03/12 05:28:41;;;;;;;12.00;7.77;;;;;;;9.80;64.97;101349.06;5250300;28;20555;-78
2022/03/12 05:31:13;;;;;;;9.33;7.60;;;;;;;9.65;66.04;101350.63;5248607;28;20052;-76
2022/03/12 05:33:46;;;;;;;9.70;6.97;;;;;;;9.76;65.05;101347.50;5240229;28;20025;-75
2022/03/12 05:36:17;;;;;;;9.10;7.67;;;;;;;9.74;65.25;101353.75;5242048;28;20125;-76
2022/03/12 05:38:48;;;;;;;9.90;7.67;;;;;;;9.76;65.14;101363.19;5251704;28;20121;-76
2022/03/12 05:41:20;;;;;;;7.43;6.63;;;;;;;9.71;65.06;101359.09;5245079;28;20033;-75
2022/03/12 05:43:52;;;;;;;10.77;7.80;;;;;;;9.58;66.36;101364.94;5251769;28;20025;-76
2022/03/12 05:46:23;;;;;;;10.43;7.27;;;;;;;9.64;66.08;101366.38;5245677;28;20106;-77
2022/03/12 05:48:54;;;;;;;10.30;7.77;;;;;;;9.61;66.32;101363.94;5238480;28;20068;-77
2022/03/12 05:51:26;;;;;;;10.10;7.83;;;;;;;9.55;67.41;101375.53;5250792;28;20037;-77
2022/03/12 05:53:58;;;;;;;9.93;7.33;;;;;;;9.65;66.48;101370.72;5232461;28;20032;-74
2022/03/12 05:56:30;;;;;;;8.33;6.57;;;;;;;9.52;67.36;101378.28;5231076;28;20473;-77
2022/03/12 05:59:01;;;;;;;9.87;7.90;;;;;;;9.64;66.73;101372.47;5233052;28;20029;-76
2022/03/12 06:01:32;;;;;;;9.03;6.93;;;;;;;9.44;68.12;101381.28;5238043;28;20492;-76
2022/03/12 06:04:05;;;;;;;11.40;6.90;;;;;;;9.47;68.24;101380.25;5230720;28;20508;-76
2022/03/12 06:06:36;;;;;;;8.53;6.43;;;;;;;9.54;67.88;101379.06;5246281;28;20055;-77
2022/03/12 06:09:09;;;;;;;9.37;7.43;;;;;;;9.39;68.40;101371.00;5251950;28;20025;-76
2022/03/12 06:11:42;;;;;;;9.57;7.47;;;;;;;9.52;68.50;101380.91;5250241;28;20471;-76
2022/03/12 06:14:16;;;;;;;9.77;7.70;;;;;;;9.55;68.49;101384.22;5248515;28;20029;-77
2022/03/12 06:16:48;;;;;;;12.75;7.43;;;;;;;9.60;68.00;101386.59;5250628;28;20199;-76
2022/03/12 06:19:20;;;;;;;13.03;7.43;;;;;;;9.50;68.77;101378.34;5237214;28;20057;-76
2022/03/12 06:21:51;;;;;;;18.77;7.93;;;;;;;9.62;67.88;101387.38;5230055;28;20536;-76
2022/03/12 06:24:22;;;;;;;12.70;7.70;;;;;;;9.61;68.44;101396.16;5245217;28;20067;-77
2022/03/12 06:26:53;;;;;;;8.73;6.77;;;;;;;9.49;69.02;101387.13;5244323;28;20034;-76
2022/03/12 06:29:25;;;;;;;8.70;6.50;;;;;;;9.46;69.43;101391.66;5231849;28;20035;-78
2022/03/12 06:31:56;;;;;;;12.60;7.83;;;;;;;9.49;69.59;101400.22;5234149;28;20060;-79
2022/03/12 06:34:29;;;;;;;14.87;7.87;;;;;;;9.47;70.12;101401.19;5248903;28;20051;-76
2022/03/12 06:37:01;;;;;;;9.60;7.77;;;;;;;9.54;69.60;101405.22;5234610;28;20033;-76
2022/03/12 06:39:32;;;;;;;10.10;7.27;;;;;;;9.67;68.76;101403.72;5236766;28;20052;-77
2022/03/12 06:42:04;;;;;;;10.47;7.33;;;;;;;9.64;69.76;101406.47;5229366;28;20771;-77
2022/03/12 06:44:37;;;;;;;9.37;7.53;;;;;;;9.76;68.96;101414.66;5228009;28;20095;-78
2022/03/12 06:47:08;;;;;;;10.20;7.70;;;;;;;9.73;69.24;101409.56;5229364;28;20048;-78
2022/03/12 06:49:40;;;;;;;9.67;7.53;;;;;;;9.74;69.07;101408.66;5236257;28;20025;-78
2022/03/12 06:52:11;;;;;;;9.60;7.30;;;;;;;9.72;69.36;101413.94;5243863;28;20033;-77
2022/03/12 06:54:42;;;;;;;10.10;6.03;;;;;;;9.83;68.67;101410.84;5236260;28;20048;-77
2022/03/12 06:57:14;;;;;;;9.60;6.97;;;;;;;9.90;68.79;101424.47;5242044;28;20029;-77
2022/03/12 06:59:45;;;;;;;11.13;7.77;;;;;;;9.79;69.42;101417.16;5238763;28;20032;-77
2022/03/12 07:02:16;;;;;;;10.07;6.80;;;;;;;9.79;70.09;101417.16;5249126;28;20614;-77
2022/03/12 07:04:47;;;;;;;7.87;6.87;;;;;;;9.86;69.33;101425.56;5245249;28;20106;-79
2022/03/12 07:07:19;;;;;;;8.87;6.53;;;;;;;9.95;69.07;101427.72;5235626;28;20039;-79
2022/03/12 07:09:50;;;;;;;10.07;6.60;;;;;;;10.04;68.75;101424.66;5248266;28;20033;-79
2022/03/12 07:12:21;;;;;;;12.57;7.20;;;;;;;10.01;69.11;101423.97;5249033;28;20025;-79
2022/03/12 07:14:53;;;;;;;10.20;7.07;;;;;;;10.07;68.79;101431.50;5245863;28;20420;-79
2022/03/12 07:17:24;;;;;;;10.77;7.40;;;;;;;10.13;68.44;101439.06;5234993;28;20112;-79
2022/03/12 07:19:55;;;;;;;7.37;5.90;;;;;;;10.14;68.50;101440.75;5234830;28;20025;-78
2022/03/12 07:22:27;;;;;;;10.03;7.43;;;;;;;10.09;69.26;101432.28;5239848;28;20036;-79
2022/03/12 07:24:58;;;;;;;14.30;6.87;;;;;;;10.21;68.28;101441.31;5238768;28;20324;-77
2022/03/12 07:27:29;;;;;;;10.17;6.70;;;;;;;10.13;68.63;101439.06;5248512;28;20044;-77
2022/03/12 07:30:01;;;;;;;10.83;6.57;;;;;;;10.20;68.89;101450.09;5246627;28;20119;-78
2022/03/12 07:32:33;;;;;;;10.63;7.40;;;;;;;10.24;68.47;101454.28;5248690;28;20029;-77
2022/03/12 07:35:04;;;;;;;10.40;6.67;;;;;;;10.28;69.02;101461.03;5239972;28;20049;-77
2022/03/12 07:37:36;;;;;;;9.17;6.33;;;;;;;10.49;67.93;101460.09;5241466;28;20717;-78
2022/03/12 07:40:09;;;;;;;8.17;6.13;;;;;;;10.50;67.70;101456.53;5244829;28;20033;-77
2022/03/12 07:42:40;;;;;;;9.53;7.27;;;;;;;10.64;67.26;101472.44;5240560;28;20660;-78
2022/03/12 07:45:12;;;;;;;8.40;6.50;;;;;;;10.73;66.96;101467.66;5239810;28;20025;-76
2022/03/12 07:47:44;;;;;;;11.63;7.60;;;;;;;10.89;66.42;101478.19;5243538;28;20205;-74
2022/03/12 07:50:15;;;;;;;10.20;7.40;;;;;;;11.01;66.43;101471.47;5238187;28;20017;-73
2022/03/12 07:52:47;;;;;;;8.40;6.97;;;;;;;11.16;65.22;101475.06;5245264;28;20388;-74
2022/03/12 07:55:18;;;;;;;10.23;7.37;;;;;;;11.34;64.72;101488.16;5252995;28;20029;-75
2022/03/12 07:57:50;;;;;;;8.90;6.97;;;;;;;11.47;64.24;101478.69;5242444;28;20027;-74
2022/03/12 08:00:28;;;;;;;9.50;7.10;;;;;;;11.66;63.99;101489.97;5238222;28;20036;-76
2022/03/12 08:02:59;;;;;;;14.43;7.00;;;;;;;11.84;63.70;101495.97;5245006;28;20056;-77
2022/03/12 08:05:31;;;;;;;9.13;6.23;;;;;;;12.17;61.94;101497.69;5239523;28;21341;-77
2022/03/12 08:08:04;;;;;;;7.53;5.83;;;;;;;12.26;61.74;101498.97;5240723;28;20028;-77
2022/03/12 08:11:24;;;;;;;8.10;6.87;;;;;;;12.23;61.51;101501.78;5239425;28;20084;-77
2022/03/12 08:13:27;;;;;;;12.43;6.73;;;;;;;12.47;60.69;101493.41;5247800;28;20090;-74
2022/03/12 08:15:59;;;;;;;9.43;6.90;;;;;;;12.65;59.65;101503.81;5235039;28;20026;-71
2022/03/12 08:18:30;;;;;;;8.20;6.40;;;;;;;13.01;58.68;101497.31;5249474;28;20040;-72
2022/03/12 08:21:02;;;;;;;9.33;6.30;;;;;;;13.47;57.84;101508.59;5251770;28;20502;-72
2022/03/12 08:23:34;;;;;;;7.43;6.33;;;;;;;13.67;57.24;101509.16;5253266;28;20464;-72
2022/03/12 08:26:05;;;;;;;9.10;6.83;;;;;;;13.89;56.32;101521.00;5252277;28;20086;-72
2022/03/12 08:28:37;;;;;;;9.63;6.07;;;;;;;14.39;54.90;101520.47;5251854;28;20033;-72
2022/03/12 08:31:08;;;;;;;8.30;6.10;;;;;;;14.70;53.87;101525.47;5252303;28;20100;-72
2022/03/12 08:33:40;;;;;;;8.17;5.90;;;;;;;15.15;53.45;101526.97;5253021;28;20240;-72
2022/03/12 08:36:11;;;;;;;8.50;5.87;;;;;;;15.58;51.40;101531.03;5250961;28;20037;-72
2022/03/12 08:38:42;;;;;;;7.47;5.63;;;;;;;15.91;50.55;101534.88;5252766;28;20625;-72
2022/03/12 08:41:15;;;;;;;9.30;5.50;;;;;;;15.84;50.18;101534.47;5252335;28;20029;-72
2022/03/12 08:43:47;;;;;;;7.07;5.00;;;;;;;16.48;48.80;101542.28;5251222;28;20047;-72
2022/03/12 08:46:18;;;;;;;7.80;5.33;;;;;;;16.73;48.39;101547.53;5249143;28;20037;-71
2022/03/12 08:48:49;;;;;;;7.23;5.27;;;;;;;17.25;47.07;101539.25;5250985;28;20591;-72
2022/03/12 08:51:21;;;;;;;7.57;4.97;;;;;;;16.95;46.97;101540.63;5242043;28;20540;-72
2022/03/12 08:53:52;;;;;;;9.27;4.90;;;;;;;16.98;45.96;101529.81;5234074;28;20028;-72
2022/03/12 08:56:23;;;;;;;7.17;4.70;;;;;;;17.29;46.54;101540.72;5232625;28;20029;-71
2022/03/12 08:58:55;;;;;;;11.13;4.33;;;;;;;17.33;45.39;101557.19;5227651;28;20477;-72
2022/03/12 09:01:26;;;;;;;7.50;3.67;;;;;;;16.89;45.60;101556.03;5234212;28;20442;-72
2022/03/12 09:03:58;;;;;;;8.23;3.77;;;;;;;16.95;46.09;101556.50;5251390;28;20079;-72
2022/03/12 09:06:31;;;;;;;6.27;3.87;;;;;;;17.27;45.48;101548.78;5251298;28;20481;-72
2022/03/12 09:09:02;;;;;;;6.73;4.00;;;;;;;17.45;45.08;101547.47;5252136;28;20031;-72
2022/03/12 09:11:33;;;;;;;8.07;3.33;;;;;;;17.24;45.38;101550.81;5249624;28;20029;-72
2022/03/12 09:14:04;;;;;;;6.97;3.80;;;;;;;17.51;45.13;101554.91;5250202;28;20029;-72
2022/03/12 09:16:37;;;;;;;6.67;4.00;;;;;;;17.71;43.93;101549.84;5251577;28;20036;-72
2022/03/12 09:19:08;;;;;;;9.37;3.67;;;;;;;17.25;44.09;101560.44;5249496;28;20025;-72
2022/03/12 09:21:41;;;;;;;5.83;3.53;;;;;;;17.26;44.02;101556.84;5250066;28;20029;-72
2022/03/12 09:24:12;;;;;;;6.10;3.10;;;;;;;17.13;43.98;101562.22;5251887;28;20140;-72
2022/03/12 09:26:43;;;;;;;6.83;3.50;;;;;;;17.11;43.85;101549.09;5250503;28;20103;-72
2022/03/12 09:29:15;;;;;;;12.87;3.63;;;;;;;17.04;43.87;101558.44;5248239;28;20017;-72
2022/03/12 09:31:46;;;;;;;6.53;3.20;;;;;;;17.12;43.98;101563.19;5249865;28;20142;-72
2022/03/12 09:34:17;;;;;;;8.93;3.60;;;;;;;17.09;43.25;101566.06;5250379;28;20031;-72
2022/03/12 09:36:49;;;;;;;7.40;3.10;;;;;;;17.08;43.25;101565.19;5251187;28;20423;-72
2022/03/12 09:39:20;;;;;;;8.00;3.90;;;;;;;17.11;43.30;101558.84;5250274;28;20021;-73
2022/03/12 09:41:52;;;;;;;8.50;3.43;;;;;;;17.25;43.51;101558.63;5250683;28;20555;-73
2022/03/12 09:44:24;;;;;;;7.40;3.07;;;;;;;17.00;42.63;101562.28;5249775;28;20049;-73
2022/03/12 09:46:55;;;;;;;5.50;2.83;;;;;;;17.04;42.25;101561.09;5250163;28;20043;-74
2022/03/12 09:49:27;;;;;;;7.27;2.53;;;;;;;16.72;42.26;101554.63;5250536;28;20025;-73
2022/03/12 09:51:59;;;;;;;7.83;2.73;;;;;;;16.71;42.45;101558.25;5250761;28;20032;-73
2022/03/12 09:54:31;;;;;;;9.47;3.00;;;;;;;16.49;42.85;101554.56;5251623;28;20033;-75
2022/03/12 09:57:03;;;;;;;6.10;2.37;;;;;;;16.37;42.59;101561.56;5250826;28;20064;-77
2022/03/12 09:59:34;;;;;;;7.20;2.33;;;;;;;16.10;43.45;101562.63;5249808;28;20056;-79
2022/03/12 10:02:05;;;;;;;9.47;2.50;;;;;;;15.95;43.54;101567.19;5249330;28;20503;-76
2022/03/12 10:04:37;;;;;;;9.60;3.50;;;;;;;15.94;43.48;101563.72;5250861;28;20621;-80
2022/03/12 10:07:08;;;;;;;5.70;2.70;;;;;;;16.33;43.16;101562.78;5249304;28;20102;-81
2022/03/12 10:09:40;;;;;;;7.30;2.63;;;;;;;16.66;42.73;101576.25;5250934;28;20484;-85
2022/03/12 10:12:11;;;;;;;4.97;2.87;;;;;;;16.75;42.25;101572.06;5249763;28;20017;-79
2022/03/12 10:14:42;;;;;;;8.03;3.13;;;;;;;16.96;42.38;101576.72;5249663;28;20021;-79
2022/03/12 10:17:14;;;;;;;7.53;2.93;;;;;;;17.52;41.80;101577.78;5250064;28;20096;-79
2022/03/12 10:19:46;;;;;;;11.90;3.30;;;;;;;17.50;40.70;101579.72;5249782;28;20024;-79
2022/03/12 10:22:19;;;;;;;6.70;2.90;;;;;;;17.57;40.91;101570.34;5250382;28;20097;-75
2022/03/12 10:24:50;;;;;;;8.37;2.80;;;;;;;17.46;40.98;101579.09;5248780;28;20063;-76
2022/03/12 10:27:22;;;;;;;6.30;2.77;;;;;;;17.89;40.47;101576.69;5248611;28;20395;-76
2022/03/12 10:29:53;;;;;;;6.03;2.53;;;;;;;17.89;39.52;101572.22;5241825;28;20061;-77
2022/03/12 10:32:28;;;;;;;5.93;2.70;;;;;;;17.59;40.78;101573.72;5232201;28;20118;-75
2022/03/12 10:35:02;;;;;;;6.47;2.70;;;;;;;17.78;39.54;101557.16;5229768;28;20049;-76
2022/03/12 10:37:33;;;;;;;6.93;2.75;;;;;;;17.90;38.79;101560.69;5229876;28;20025;-76
2022/03/12 10:40:14;;;;;;;7.17;2.90;;;;;;;18.21;39.08;101567.97;5228837;28;20026;-76
2022/03/12 10:42:56;;;;;;;6.10;2.40;;;;;;;18.57;38.67;101583.63;5228438;28;20028;-76
2022/03/12 10:45:30;;;;;;;6.43;2.27;;;;;;;18.24;38.17;101577.47;5228104;28;20021;-77
2022/03/12 10:48:03;;;;;;;5.72;2.75;;;;;;;18.23;38.39;101581.97;5229291;28;20063;-76
2022/03/12 10:50:44;;;;;;;7.67;2.20;;;;;;;18.30;39.24;101570.84;5232005;28;20055;-77
2022/03/12 10:53:15;;;;;;;7.87;2.47;;;;;;;18.32;38.94;101575.06;5230689;28;20029;-76
2022/03/12 10:55:50;;;;;;;8.67;2.80;;;;;;;18.23;38.91;101554.59;5229349;28;20566;-76
2022/03/12 10:58:24;;;;;;;5.57;2.33;;;;;;;18.44;38.14;101569.72;5227143;28;20025;-76
2022/03/12 11:01:00;;;;;;;5.47;2.72;;;;;;;18.23;38.96;101563.41;5229257;28;20044;-76
2022/03/12 11:03:35;;;;;;;10.27;2.40;;;;;;;18.13;38.39;101571.25;5229192;28;20051;-76
2022/03/12 11:06:06;;;;;;;;;;;;;;;18.98;37.84;101569.69;5229307;28;20025;-76
2022/03/12 11:08:38;;;;;;;7.47;2.57;;;;;;;18.35;38.22;101571.31;5229090;28;19913;-74
2022/03/12 11:11:13;;;;;;;6.27;2.50;;;;;;;18.07;37.83;101569.06;5227418;28;20068;-76
2022/03/12 11:13:50;;;;;;;7.50;2.67;;;;;;;18.13;38.00;101559.78;5242904;28;20647;-76
2022/03/12 11:16:24;;;;;;;6.33;2.37;;;;;;;18.35;37.56;101574.81;5228467;28;20032;-76
2022/03/12 11:19:01;;;;;;;7.20;2.53;;;;;;;18.30;37.51;101582.28;5248360;28;20040;-76
2022/03/12 11:21:37;;;;;;;6.83;2.33;;;;;;;18.00;37.28;101571.38;5249058;28;20044;-76
2022/03/12 11:24:15;;;;;;;13.90;2.93;;;;;;;18.40;37.78;101582.38;5248430;28;20104;-75
2022/03/12 11:27:03;;;;;;;5.83;2.20;;;;;;;18.62;38.03;101580.63;5249609;28;20021;-76
2022/03/12 11:29:35;;;;;;;5.30;2.00;;;;;;;18.44;37.25;101569.72;5250804;28;20021;-76
2022/03/12 11:32:09;;;;;;;6.10;2.60;;;;;;;18.43;36.57;101576.00;5253616;28;20475;-75
2022/03/12 11:34:42;;;;;;;8.90;2.30;;;;;;;18.56;36.20;101571.34;5252426;28;20021;-75
2022/03/12 11:37:16;;;;;;;4.13;2.25;;;;;;;18.51;36.67;101576.19;5253742;28;20377;-75
2022/03/12 11:39:53;;;;;;;5.43;2.10;;;;;;;18.67;36.83;101570.47;5253783;28;20029;-76
2022/03/12 11:42:32;;;;;;;5.67;2.10;;;;;;;18.41;36.54;101559.38;5253521;28;20021;-75
2022/03/12 11:45:07;;;;;;;6.50;2.27;;;;;;;18.39;35.86;101570.09;5252337;28;20017;-75